sensor_id;sensor_type;location;lat;lon;timestamp;pressure;altitude;pressure_sealevel;temperature;humidity
69624;BME280;56843;52.020;5.670;2023-07-22T00:00:30;101200.31;;;19.94;52.80
69624;BME280;56843;52.020;5.670;2023-07-22T00:02:01;101209.97;;;19.91;52.51
69624;BME280;56843;52.020;5.670;2023-07-22T00:03:32;101208.78;;;19.89;52.61
69624;BME280;56843;52.020;5.670;2023-07-22T00:05:03;101213.81;;;19.87;52.45
69624;BME280;56843;52.020;5.670;2023-07-22T00:06:34;101208.78;;;19.85;52.92
69624;BME280;56843;52.020;5.670;2023-07-22T00:08:04;101208.34;;;19.83;52.55
69624;BME280;56843;52.020;5.670;2023-07-22T00:09:35;101213.00;;;19.83;52.78
69624;BME280;56843;52.020;5.670;2023-07-22T00:11:06;101214.16;;;19.82;52.61
69624;BME280;56843;52.020;5.670;2023-07-22T00:12:37;101205.22;;;19.77;52.57
69624;BME280;56843;52.020;5.670;2023-07-22T00:14:08;101205.59;;;19.79;52.92
69624;BME280;56843;52.020;5.670;2023-07-22T00:15:39;101205.22;;;19.77;52.79
69624;BME280;56843;52.020;5.670;2023-07-22T00:17:10;101211.00;;;19.76;52.98
69624;BME280;56843;52.020;5.670;2023-07-22T00:18:40;101205.94;;;19.74;52.97
69624;BME280;56843;52.020;5.670;2023-07-22T00:20:11;101208.25;;;19.72;52.68
69624;BME280;56843;52.020;5.670;2023-07-22T00:21:42;101197.81;;;19.71;52.99
69624;BME280;56843;52.020;5.670;2023-07-22T00:23:13;101203.59;;;19.69;52.95
69624;BME280;56843;52.020;5.670;2023-07-22T00:24:45;101191.19;;;19.68;53.12
69624;BME280;56843;52.020;5.670;2023-07-22T00:26:15;101190.00;;;19.66;53.03
69624;BME280;56843;52.020;5.670;2023-07-22T00:27:46;101197.34;;;19.65;53.15
69624;BME280;56843;52.020;5.670;2023-07-22T00:29:16;101187.69;;;19.64;53.19
69624;BME280;56843;52.020;5.670;2023-07-22T00:30:47;101190.78;;;19.63;52.77
69624;BME280;56843;52.020;5.670;2023-07-22T00:32:19;101187.28;;;19.62;53.15
69624;BME280;56843;52.020;5.670;2023-07-22T00:33:49;101188.06;;;19.63;53.08
69624;BME280;56843;52.020;5.670;2023-07-22T00:35:20;101185.72;;;19.61;52.88
69624;BME280;56843;52.020;5.670;2023-07-22T00:36:51;101181.84;;;19.62;53.06
69624;BME280;56843;52.020;5.670;2023-07-22T00:38:22;101187.28;;;19.62;52.79
69624;BME280;56843;52.020;5.670;2023-07-22T00:39:52;101188.81;;;19.63;52.82
69624;BME280;56843;52.020;5.670;2023-07-22T00:41:24;101183.78;;;19.62;53.19
69624;BME280;56843;52.020;5.670;2023-07-22T00:42:54;101186.09;;;19.60;52.95
69624;BME280;56843;52.020;5.670;2023-07-22T00:44:25;101189.94;;;19.59;52.95
69624;BME280;56843;52.020;5.670;2023-07-22T00:45:56;101181.00;;;19.55;53.34
69624;BME280;56843;52.020;5.670;2023-07-22T00:47:26;101178.28;;;19.55;53.29
69624;BME280;56843;52.020;5.670;2023-07-22T00:48:57;101181.38;;;19.53;53.22
69624;BME280;56843;52.020;5.670;2023-07-22T00:50:28;101181.75;;;19.52;53.33
69624;BME280;56843;52.020;5.670;2023-07-22T00:52:00;101182.09;;;19.50;53.62
69624;BME280;56843;52.020;5.670;2023-07-22T00:53:34;101177.84;;;19.49;53.27
69624;BME280;56843;52.020;5.670;2023-07-22T00:55:06;101181.31;;;19.50;53.40
69624;BME280;56843;52.020;5.670;2023-07-22T00:56:37;101177.84;;;19.49;53.40
69624;BME280;56843;52.020;5.670;2023-07-22T00:58:09;101179.38;;;19.47;53.81
69624;BME280;56843;52.020;5.670;2023-07-22T00:59:40;101183.22;;;19.46;53.92
69624;BME280;56843;52.020;5.670;2023-07-22T01:03:24;101177.78;;;19.42;53.61
69624;BME280;56843;52.020;5.670;2023-07-22T01:04:55;101175.47;;;19.44;53.66
69624;BME280;56843;52.020;5.670;2023-07-22T01:06:26;101168.47;;;19.43;53.77
69624;BME280;56843;52.020;5.670;2023-07-22T01:07:59;101178.91;;;19.41;53.93
69624;BME280;56843;52.020;5.670;2023-07-22T01:09:39;101171.94;;;19.40;54.38
69624;BME280;56843;52.020;5.670;2023-07-22T01:11:09;101173.88;;;19.40;54.02
69624;BME280;56843;52.020;5.670;2023-07-22T01:12:40;101169.59;;;19.39;54.00
69624;BME280;56843;52.020;5.670;2023-07-22T01:14:10;101172.69;;;19.37;54.43
69624;BME280;56843;52.020;5.670;2023-07-22T01:15:41;101171.53;;;19.38;54.30
69624;BME280;56843;52.020;5.670;2023-07-22T01:17:11;101168.06;;;19.38;54.19
69624;BME280;56843;52.020;5.670;2023-07-22T01:18:43;101168.44;;;19.36;54.19
69624;BME280;56843;52.020;5.670;2023-07-22T01:20:13;101166.88;;;19.35;54.12
69624;BME280;56843;52.020;5.670;2023-07-22T01:21:46;101160.66;;;19.35;54.59
69624;BME280;56843;52.020;5.670;2023-07-22T01:23:17;101160.25;;;19.33;54.41
69624;BME280;56843;52.020;5.670;2023-07-22T01:24:48;101162.56;;;19.31;54.55
69624;BME280;56843;52.020;5.670;2023-07-22T01:26:19;101164.50;;;19.30;54.47
69624;BME280;56843;52.020;5.670;2023-07-22T01:27:52;101159.84;;;19.31;54.39
69624;BME280;56843;52.020;5.670;2023-07-22T01:29:24;101166.44;;;19.30;54.76
69624;BME280;56843;52.020;5.670;2023-07-22T01:30:54;101161.03;;;19.30;54.68
69624;BME280;56843;52.020;5.670;2023-07-22T01:32:25;101153.25;;;19.28;54.62
69624;BME280;56843;52.020;5.670;2023-07-22T01:33:55;101155.19;;;19.28;54.65
69624;BME280;56843;52.020;5.670;2023-07-22T01:35:26;101150.94;;;19.27;54.48
69624;BME280;56843;52.020;5.670;2023-07-22T01:36:56;101156.72;;;19.25;54.84
69624;BME280;56843;52.020;5.670;2023-07-22T01:38:27;101152.44;;;19.24;54.47
69624;BME280;56843;52.020;5.670;2023-07-22T01:39:57;101154.38;;;19.24;54.95
69624;BME280;56843;52.020;5.670;2023-07-22T01:41:28;101158.25;;;19.23;54.77
69624;BME280;56843;52.020;5.670;2023-07-22T01:42:58;101155.88;;;19.21;54.96
69624;BME280;56843;52.020;5.670;2023-07-22T01:44:28;101150.47;;;19.21;55.00
69624;BME280;56843;52.020;5.670;2023-07-22T01:45:59;101148.16;;;19.20;54.68
69624;BME280;56843;52.020;5.670;2023-07-22T01:47:29;101155.88;;;19.21;54.77
69624;BME280;56843;52.020;5.670;2023-07-22T01:49:00;101153.97;;;19.22;54.87
69624;BME280;56843;52.020;5.670;2023-07-22T01:50:32;101163.66;;;19.23;55.04
69624;BME280;56843;52.020;5.670;2023-07-22T01:52:02;101162.88;;;19.22;54.92
69624;BME280;56843;52.020;5.670;2023-07-22T01:53:33;101158.59;;;19.21;54.89
69624;BME280;56843;52.020;5.670;2023-07-22T01:55:04;101148.94;;;19.20;54.84
69624;BME280;56843;52.020;5.670;2023-07-22T01:56:36;101153.19;;;19.21;55.13
69624;BME280;56843;52.020;5.670;2023-07-22T01:58:07;101159.75;;;19.20;54.81
69624;BME280;56843;52.020;5.670;2023-07-22T01:59:37;101156.28;;;19.20;54.93
69624;BME280;56843;52.020;5.670;2023-07-22T02:01:08;101148.16;;;19.20;55.21
69624;BME280;56843;52.020;5.670;2023-07-22T02:02:39;101157.06;;;19.20;54.98
69624;BME280;56843;52.020;5.670;2023-07-22T02:04:09;101155.13;;;19.21;54.76
69624;BME280;56843;52.020;5.670;2023-07-22T02:05:41;101151.63;;;19.20;54.92
69624;BME280;56843;52.020;5.670;2023-07-22T02:07:11;101150.47;;;19.21;55.05
69624;BME280;56843;52.020;5.670;2023-07-22T02:08:42;101149.34;;;19.22;55.08
69624;BME280;56843;52.020;5.670;2023-07-22T02:10:12;101153.59;;;19.23;55.05
69624;BME280;56843;52.020;5.670;2023-07-22T02:11:43;101152.03;;;19.22;54.81
69624;BME280;56843;52.020;5.670;2023-07-22T02:13:14;101149.34;;;19.22;54.73
69624;BME280;56843;52.020;5.670;2023-07-22T02:14:44;101148.16;;;19.20;54.99
69624;BME280;56843;52.020;5.670;2023-07-22T02:16:15;101149.72;;;19.21;54.63
69624;BME280;56843;52.020;5.670;2023-07-22T02:17:46;101148.16;;;19.20;54.76
69624;BME280;56843;52.020;5.670;2023-07-22T02:19:18;101142.31;;;19.18;55.12
69624;BME280;56843;52.020;5.670;2023-07-22T02:20:49;101141.53;;;19.17;54.78
69624;BME280;56843;52.020;5.670;2023-07-22T02:22:19;101140.41;;;19.18;54.98
69624;BME280;56843;52.020;5.670;2023-07-22T02:23:49;101133.78;;;19.16;54.58
69624;BME280;56843;52.020;5.670;2023-07-22T02:25:20;101136.91;;;19.18;54.92
69624;BME280;56843;52.020;5.670;2023-07-22T02:26:51;101138.44;;;19.15;54.96
69624;BME280;56843;52.020;5.670;2023-07-22T02:28:21;101136.50;;;19.16;55.01
69624;BME280;56843;52.020;5.670;2023-07-22T02:29:53;101134.94;;;19.15;54.88
69624;BME280;56843;52.020;5.670;2023-07-22T02:31:24;101134.19;;;19.14;54.96
69624;BME280;56843;52.020;5.670;2023-07-22T02:32:55;101138.03;;;19.13;54.62
69624;BME280;56843;52.020;5.670;2023-07-22T02:34:26;101131.06;;;19.12;55.12
69624;BME280;56843;52.020;5.670;2023-07-22T02:35:56;101127.94;;;19.10;54.99
69624;BME280;56843;52.020;5.670;2023-07-22T02:37:27;101132.59;;;19.10;55.13
69624;BME280;56843;52.020;5.670;2023-07-22T02:38:57;101130.22;;;19.08;54.62
69624;BME280;56843;52.020;5.670;2023-07-22T02:40:28;101134.09;;;19.07;55.09
69624;BME280;56843;52.020;5.670;2023-07-22T02:41:58;101127.53;;;19.08;55.36
69624;BME280;56843;52.020;5.670;2023-07-22T02:43:29;101128.31;;;19.08;55.01
69624;BME280;56843;52.020;5.670;2023-07-22T02:44:59;101126.75;;;19.08;54.82
69624;BME280;56843;52.020;5.670;2023-07-22T02:46:29;101134.88;;;19.08;54.79
69624;BME280;56843;52.020;5.670;2023-07-22T02:48:01;101129.47;;;19.08;55.14
69624;BME280;56843;52.020;5.670;2023-07-22T02:49:32;101121.69;;;19.06;54.92
69624;BME280;56843;52.020;5.670;2023-07-22T02:51:07;101130.59;;;19.06;55.10
69624;BME280;56843;52.020;5.670;2023-07-22T02:52:37;101125.97;;;19.07;55.17
69624;BME280;56843;52.020;5.670;2023-07-22T02:54:08;101127.13;;;19.06;54.84
69624;BME280;56843;52.020;5.670;2023-07-22T02:55:38;101131.00;;;19.05;54.89
69624;BME280;56843;52.020;5.670;2023-07-22T02:57:09;101126.31;;;19.02;55.16
69624;BME280;56843;52.020;5.670;2023-07-22T02:58:39;101129.00;;;19.02;55.14
69624;BME280;56843;52.020;5.670;2023-07-22T03:00:13;101127.00;;;18.95;55.33
69624;BME280;56843;52.020;5.670;2023-07-22T03:01:47;101126.59;;;18.90;55.53
69624;BME280;56843;52.020;5.670;2023-07-22T03:03:18;101134.69;;;18.90;55.67
69624;BME280;56843;52.020;5.670;2023-07-22T03:04:49;101129.63;;;18.88;55.40
69624;BME280;56843;52.020;5.670;2023-07-22T03:06:20;101134.66;;;18.86;55.25
69624;BME280;56843;52.020;5.670;2023-07-22T03:07:50;101143.16;;;18.88;55.23
69624;BME280;56843;52.020;5.670;2023-07-22T03:09:23;101135.84;;;18.89;55.34
69624;BME280;56843;52.020;5.670;2023-07-22T03:10:53;101131.16;;;18.86;55.38
69624;BME280;56843;52.020;5.670;2023-07-22T03:12:24;101140.78;;;18.83;55.54
69624;BME280;56843;52.020;5.670;2023-07-22T03:13:54;101138.47;;;18.82;55.63
69624;BME280;56843;52.020;5.670;2023-07-22T03:15:25;101132.25;;;18.81;55.46
69624;BME280;56843;52.020;5.670;2023-07-22T03:16:56;101130.66;;;18.77;55.55
69624;BME280;56843;52.020;5.670;2023-07-22T03:18:27;101138.44;;;18.78;55.67
69624;BME280;56843;52.020;5.670;2023-07-22T03:19:57;101129.13;;;18.76;55.61
69624;BME280;56843;52.020;5.670;2023-07-22T03:21:28;101135.25;;;18.73;55.94
69624;BME280;56843;52.020;5.670;2023-07-22T03:22:59;101131.78;;;18.72;55.93
69624;BME280;56843;52.020;5.670;2023-07-22T03:24:29;101132.56;;;18.73;55.72
69624;BME280;56843;52.020;5.670;2023-07-22T03:26:00;101142.97;;;18.71;55.53
69624;BME280;56843;52.020;5.670;2023-07-22T03:27:31;101132.16;;;18.71;56.00
69624;BME280;56843;52.020;5.670;2023-07-22T03:29:01;101134.47;;;18.72;55.60
69624;BME280;56843;52.020;5.670;2023-07-22T03:30:32;101139.13;;;18.72;55.81
69624;BME280;56843;52.020;5.670;2023-07-22T03:32:04;101136.75;;;18.70;55.77
69624;BME280;56843;52.020;5.670;2023-07-22T03:33:34;101139.88;;;18.72;55.61
69624;BME280;56843;52.020;5.670;2023-07-22T03:35:05;101137.91;;;18.69;55.79
69624;BME280;56843;52.020;5.670;2023-07-22T03:36:38;101134.38;;;18.65;55.73
69624;BME280;56843;52.020;5.670;2023-07-22T03:38:09;101135.16;;;18.66;55.83
69624;BME280;56843;52.020;5.670;2023-07-22T03:39:39;101139.00;;;18.65;56.02
69624;BME280;56843;52.020;5.670;2023-07-22T03:41:10;101142.09;;;18.63;55.63
69624;BME280;56843;52.020;5.670;2023-07-22T03:42:40;101137.03;;;18.62;55.77
69624;BME280;56843;52.020;5.670;2023-07-22T03:44:11;101138.19;;;18.61;56.05
69624;BME280;56843;52.020;5.670;2023-07-22T03:45:42;101138.19;;;18.61;55.90
69624;BME280;56843;52.020;5.670;2023-07-22T03:47:13;101125.81;;;18.60;55.97
69624;BME280;56843;52.020;5.670;2023-07-22T03:48:43;101131.63;;;18.62;56.09
69624;BME280;56843;52.020;5.670;2023-07-22T03:50:14;101139.72;;;18.62;55.99
69624;BME280;56843;52.020;5.670;2023-07-22T03:51:44;101132.41;;;18.62;55.83
69624;BME280;56843;52.020;5.670;2023-07-22T03:53:15;101139.00;;;18.65;55.95
69624;BME280;56843;52.020;5.670;2023-07-22T03:54:45;101140.22;;;18.67;55.91
69624;BME280;56843;52.020;5.670;2023-07-22T03:56:16;101140.22;;;18.67;56.00
69624;BME280;56843;52.020;5.670;2023-07-22T03:57:46;101143.31;;;18.69;55.66
69624;BME280;56843;52.020;5.670;2023-07-22T03:59:17;101142.91;;;18.67;55.98
69624;BME280;56843;52.020;5.670;2023-07-22T04:00:48;101140.63;;;18.69;55.86
69624;BME280;56843;52.020;5.670;2023-07-22T04:02:19;101141.75;;;18.68;55.97
69624;BME280;56843;52.020;5.670;2023-07-22T04:03:50;101144.09;;;18.70;56.05
69624;BME280;56843;52.020;5.670;2023-07-22T04:05:20;101140.63;;;18.69;55.96
69624;BME280;56843;52.020;5.670;2023-07-22T04:06:51;101140.63;;;18.69;55.83
69624;BME280;56843;52.020;5.670;2023-07-22T04:08:21;101143.75;;;18.71;56.07
69624;BME280;56843;52.020;5.670;2023-07-22T04:09:52;101148.38;;;18.71;56.25
69624;BME280;56843;52.020;5.670;2023-07-22T04:11:22;101147.25;;;18.72;56.02
69624;BME280;56843;52.020;5.670;2023-07-22T04:12:53;101150.72;;;18.72;56.02
69624;BME280;56843;52.020;5.670;2023-07-22T04:14:23;101144.53;;;18.72;56.09
69624;BME280;56843;52.020;5.670;2023-07-22T04:15:55;101148.38;;;18.71;55.97
69624;BME280;56843;52.020;5.670;2023-07-22T04:17:25;101147.56;;;18.70;56.13
69624;BME280;56843;52.020;5.670;2023-07-22T04:18:56;101149.94;;;18.72;56.20
69624;BME280;56843;52.020;5.670;2023-07-22T04:20:26;101147.25;;;18.72;56.01
69624;BME280;56843;52.020;5.670;2023-07-22T04:21:57;101141.06;;;18.71;56.07
69624;BME280;56843;52.020;5.670;2023-07-22T04:23:28;101143.38;;;18.73;56.06
69624;BME280;56843;52.020;5.670;2023-07-22T04:24:58;101137.97;;;18.73;56.32
69624;BME280;56843;52.020;5.670;2023-07-22T04:26:28;101140.66;;;18.73;56.08
69624;BME280;56843;52.020;5.670;2023-07-22T04:28:00;101135.66;;;18.75;56.09
69624;BME280;56843;52.020;5.670;2023-07-22T04:29:30;101138.38;;;18.75;55.94
69624;BME280;56843;52.020;5.670;2023-07-22T04:31:03;101138.38;;;18.75;56.30
69624;BME280;56843;52.020;5.670;2023-07-22T04:32:34;101136.44;;;18.75;56.34
69624;BME280;56843;52.020;5.670;2023-07-22T04:34:05;101131.41;;;18.74;56.41
69624;BME280;56843;52.020;5.670;2023-07-22T04:35:40;101133.81;;;18.79;56.45
69624;BME280;56843;52.020;5.670;2023-07-22T04:37:11;101134.56;;;18.79;56.38
69624;BME280;56843;52.020;5.670;2023-07-22T04:38:43;101136.91;;;18.81;56.54
69624;BME280;56843;52.020;5.670;2023-07-22T04:40:13;101143.50;;;18.83;56.36
69624;BME280;56843;52.020;5.670;2023-07-22T04:41:48;101146.19;;;18.83;56.34
69624;BME280;56843;52.020;5.670;2023-07-22T04:43:18;101136.16;;;18.84;56.38
69624;BME280;56843;52.020;5.670;2023-07-22T04:44:49;101141.63;;;18.87;56.53
69624;BME280;56843;52.020;5.670;2023-07-22T04:46:19;101146.66;;;18.89;56.35
69624;BME280;56843;52.020;5.670;2023-07-22T04:47:51;101152.84;;;18.89;56.24
69624;BME280;56843;52.020;5.670;2023-07-22T04:49:22;101147.47;;;18.93;56.41
69624;BME280;56843;52.020;5.670;2023-07-22T04:50:52;101140.94;;;18.94;56.27
69624;BME280;56843;52.020;5.670;2023-07-22T04:52:23;101138.22;;;18.94;56.42
69624;BME280;56843;52.020;5.670;2023-07-22T04:53:53;101144.81;;;18.96;56.63
69624;BME280;56843;52.020;5.670;2023-07-22T04:55:23;101137.84;;;18.95;56.55
69624;BME280;56843;52.020;5.670;2023-07-22T04:56:54;101145.63;;;19.00;56.48
69624;BME280;56843;52.020;5.670;2023-07-22T04:58:25;101145.25;;;19.02;56.64
69624;BME280;56843;52.020;5.670;2023-07-22T04:59:55;101145.66;;;19.04;56.32
69624;BME280;56843;52.020;5.670;2023-07-22T05:01:25;101146.47;;;19.08;56.59
69624;BME280;56843;52.020;5.670;2023-07-22T05:02:56;101140.31;;;19.08;56.85
69624;BME280;56843;52.020;5.670;2023-07-22T05:04:26;101144.97;;;19.11;56.84
69624;BME280;56843;52.020;5.670;2023-07-22T05:05:57;101143.44;;;19.13;56.65
69624;BME280;56843;52.020;5.670;2023-07-22T05:07:28;101146.16;;;19.17;56.48
69624;BME280;56843;52.020;5.670;2023-07-22T05:08:59;101147.34;;;19.19;56.72
69624;BME280;56843;52.020;5.670;2023-07-22T05:10:29;101147.75;;;19.21;56.84
69624;BME280;56843;52.020;5.670;2023-07-22T05:12:00;101146.63;;;19.22;56.65
69624;BME280;56843;52.020;5.670;2023-07-22T05:13:30;101154.00;;;19.25;56.79
69624;BME280;56843;52.020;5.670;2023-07-22T05:15:01;101151.72;;;19.27;56.74
69624;BME280;56843;52.020;5.670;2023-07-22T05:16:31;101147.06;;;19.28;56.52
69624;BME280;56843;52.020;5.670;2023-07-22T05:18:01;101140.88;;;19.27;56.78
69624;BME280;56843;52.020;5.670;2023-07-22T05:19:32;101151.72;;;19.31;56.55
69624;BME280;56843;52.020;5.670;2023-07-22T05:21:02;101149.03;;;19.31;56.38
69624;BME280;56843;52.020;5.670;2023-07-22T05:22:33;101144.00;;;19.29;56.80
69624;BME280;56843;52.020;5.670;2023-07-22T05:24:04;101147.84;;;19.28;56.95
69624;BME280;56843;52.020;5.670;2023-07-22T05:25:34;101159.84;;;19.27;56.79
69624;BME280;56843;52.020;5.670;2023-07-22T05:27:04;101147.84;;;19.28;57.05
69624;BME280;56843;52.020;5.670;2023-07-22T05:28:35;101147.06;;;19.28;56.95
69624;BME280;56843;52.020;5.670;2023-07-22T05:30:06;101152.91;;;19.30;57.05
69624;BME280;56843;52.020;5.670;2023-07-22T05:31:37;101149.03;;;19.31;56.71
69624;BME280;56843;52.020;5.670;2023-07-22T05:33:07;101140.16;;;19.34;56.77
69624;BME280;56843;52.020;5.670;2023-07-22T05:34:38;101147.97;;;19.42;56.88
69624;BME280;56843;52.020;5.670;2023-07-22T05:36:08;101149.19;;;19.48;56.64
69624;BME280;56843;52.020;5.670;2023-07-22T05:37:39;101148.50;;;19.55;56.39
69624;BME280;56843;52.020;5.670;2023-07-22T05:39:09;101142.75;;;19.60;56.27
69624;BME280;56843;52.020;5.670;2023-07-22T05:40:40;101150.16;;;19.66;56.04
69624;BME280;56843;52.020;5.670;2023-07-22T05:42:10;101163.34;;;19.71;55.92
69624;BME280;56843;52.020;5.670;2023-07-22T05:43:43;101157.56;;;19.76;56.20
69624;BME280;56843;52.020;5.670;2023-07-22T05:45:14;101152.19;;;19.80;55.97
69624;BME280;56843;52.020;5.670;2023-07-22T05:46:46;101155.69;;;19.84;55.61
69624;BME280;56843;52.020;5.670;2023-07-22T05:48:16;101158.44;;;19.88;55.86
69624;BME280;56843;52.020;5.670;2023-07-22T05:49:47;101153.81;;;19.92;55.83
69624;BME280;56843;52.020;5.670;2023-07-22T05:51:20;101155.78;;;19.95;55.75
69624;BME280;56843;52.020;5.670;2023-07-22T05:52:50;101155.44;;;20.00;55.55
69624;BME280;56843;52.020;5.670;2023-07-22T05:54:21;101150.78;;;20.04;55.15
69624;BME280;56843;52.020;5.670;2023-07-22T05:55:57;101145.81;;;20.09;55.42
69624;BME280;56843;52.020;5.670;2023-07-22T05:57:27;101146.22;;;20.11;55.50
69624;BME280;56843;52.020;5.670;2023-07-22T05:58:58;101148.53;;;20.16;55.08
69624;BME280;56843;52.020;5.670;2023-07-22T06:00:28;101153.22;;;20.19;54.90
69624;BME280;56843;52.020;5.670;2023-07-22T06:01:59;101143.56;;;20.22;54.89
69624;BME280;56843;52.020;5.670;2023-07-22T06:03:30;101142.03;;;20.24;54.82
69624;BME280;56843;52.020;5.670;2023-07-22T06:05:00;101138.53;;;20.27;54.77
69624;BME280;56843;52.020;5.670;2023-07-22T06:06:31;101142.06;;;20.31;54.83
69624;BME280;56843;52.020;5.670;2023-07-22T06:08:02;101135.09;;;20.34;55.03
69624;BME280;56843;52.020;5.670;2023-07-22T06:09:33;101134.75;;;20.35;55.02
69624;BME280;56843;52.020;5.670;2023-07-22T06:11:03;101133.97;;;20.38;54.52
69624;BME280;56843;52.020;5.670;2023-07-22T06:12:34;101133.59;;;20.40;54.85
69624;BME280;56843;52.020;5.670;2023-07-22T06:14:05;101140.22;;;20.42;54.66
69624;BME280;56843;52.020;5.670;2023-07-22T06:15:37;101133.59;;;20.43;54.81
69624;BME280;56843;52.020;5.670;2023-07-22T06:17:07;101142.53;;;20.44;54.64
69624;BME280;56843;52.020;5.670;2023-07-22T06:18:37;101136.72;;;20.45;54.79
69624;BME280;56843;52.020;5.670;2023-07-22T06:20:08;101142.53;;;20.47;54.93
69624;BME280;56843;52.020;5.670;2023-07-22T06:21:39;101142.94;;;20.49;54.66
69624;BME280;56843;52.020;5.670;2023-07-22T06:23:09;101144.91;;;20.52;54.60
69624;BME280;56843;52.020;5.670;2023-07-22T06:24:40;101144.50;;;20.54;54.20
69624;BME280;56843;52.020;5.670;2023-07-22T06:26:10;101147.59;;;20.56;54.76
69624;BME280;56843;52.020;5.670;2023-07-22T06:27:41;101139.50;;;20.60;54.51
69624;BME280;56843;52.020;5.670;2023-07-22T06:29:11;101146.09;;;20.62;54.30
69624;BME280;56843;52.020;5.670;2023-07-22T06:30:42;101148.44;;;20.67;54.20
69624;BME280;56843;52.020;5.670;2023-07-22T06:32:12;101140.31;;;20.71;54.11
69624;BME280;56843;52.020;5.670;2023-07-22T06:33:42;101144.59;;;20.75;54.10
69624;BME280;56843;52.020;5.670;2023-07-22T06:35:13;101151.97;;;20.78;53.85
69624;BME280;56843;52.020;5.670;2023-07-22T06:36:43;101143.84;;;20.82;54.29
69624;BME280;56843;52.020;5.670;2023-07-22T06:38:14;101145.41;;;20.86;54.15
69624;BME280;56843;52.020;5.670;2023-07-22T06:39:44;101143.88;;;20.89;54.24
69624;BME280;56843;52.020;5.670;2023-07-22T06:41:15;101140.38;;;20.92;54.14
69624;BME280;56843;52.020;5.670;2023-07-22T06:42:45;101141.16;;;20.96;53.84
69624;BME280;56843;52.020;5.670;2023-07-22T06:44:16;101138.47;;;20.99;53.63
69624;BME280;56843;52.020;5.670;2023-07-22T06:45:46;101142.31;;;20.98;53.50
69624;BME280;56843;52.020;5.670;2023-07-22T06:47:16;101142.72;;;21.00;53.79
69624;BME280;56843;52.020;5.670;2023-07-22T06:48:47;101139.22;;;21.07;53.46
69624;BME280;56843;52.020;5.670;2023-07-22T06:50:17;101148.22;;;21.14;53.70
69624;BME280;56843;52.020;5.670;2023-07-22T06:51:48;101142.81;;;21.21;53.45
69624;BME280;56843;52.020;5.670;2023-07-22T06:53:18;101145.91;;;21.31;53.05
69624;BME280;56843;52.020;5.670;2023-07-22T06:54:49;101142.81;;;21.39;52.79
69624;BME280;56843;52.020;5.670;2023-07-22T06:56:19;101143.59;;;21.47;52.92
69624;BME280;56843;52.020;5.670;2023-07-22T06:57:50;101142.06;;;21.53;52.55
69624;BME280;56843;52.020;5.670;2023-07-22T06:59:20;101142.44;;;21.62;52.37
69624;BME280;56843;52.020;5.670;2023-07-22T07:00:54;101130.78;;;21.68;52.34
69624;BME280;56843;52.020;5.670;2023-07-22T07:02:26;101138.53;;;21.77;52.16
69624;BME280;56843;52.020;5.670;2023-07-22T07:03:56;101138.53;;;21.80;52.54
69624;BME280;56843;52.020;5.670;2023-07-22T07:05:27;101135.06;;;21.87;52.38
69624;BME280;56843;52.020;5.670;2023-07-22T07:06:57;101131.53;;;21.93;51.97
69624;BME280;56843;52.020;5.670;2023-07-22T07:08:27;101134.25;;;22.01;52.31
69624;BME280;56843;52.020;5.670;2023-07-22T07:09:58;101134.66;;;22.06;52.20
69624;BME280;56843;52.020;5.670;2023-07-22T07:11:30;101138.13;;;22.10;51.97
69624;BME280;56843;52.020;5.670;2023-07-22T07:13:00;101133.44;;;22.14;51.69
69624;BME280;56843;52.020;5.670;2023-07-22T07:14:32;101139.25;;;22.20;51.76
69624;BME280;56843;52.020;5.670;2023-07-22T07:17:55;101133.03;;;22.30;50.96
69624;BME280;56843;52.020;5.670;2023-07-22T07:19:26;101135.72;;;22.33;50.89
69624;BME280;56843;52.020;5.670;2023-07-22T07:20:56;101136.09;;;22.35;51.08
69624;BME280;56843;52.020;5.670;2023-07-22T07:22:27;101136.88;;;22.39;51.09
69624;BME280;56843;52.020;5.670;2023-07-22T07:23:57;101138.81;;;22.42;50.73
69624;BME280;56843;52.020;5.670;2023-07-22T07:25:28;101134.53;;;22.45;51.00
69624;BME280;56843;52.020;5.670;2023-07-22T07:26:58;101128.66;;;22.46;50.48
69624;BME280;56843;52.020;5.670;2023-07-22T07:28:29;101134.53;;;22.48;50.27
69624;BME280;56843;52.020;5.670;2023-07-22T07:29:59;101139.16;;;22.51;50.29
69624;BME280;56843;52.020;5.670;2023-07-22T07:31:30;101139.94;;;22.55;50.32
69624;BME280;56843;52.020;5.670;2023-07-22T07:33:00;101138.78;;;22.56;50.24
69624;BME280;56843;52.020;5.670;2023-07-22T07:34:31;101133.31;;;22.60;50.00
69624;BME280;56843;52.020;5.670;2023-07-22T07:36:01;101138.38;;;22.61;50.04
69624;BME280;56843;52.020;5.670;2023-07-22T07:37:33;101125.16;;;22.63;50.25
69624;BME280;56843;52.020;5.670;2023-07-22T07:39:03;101132.50;;;22.66;49.87
69624;BME280;56843;52.020;5.670;2023-07-22T07:40:34;101127.44;;;22.68;50.18
69624;BME280;56843;52.020;5.670;2023-07-22T07:42:05;101134.03;;;22.71;49.76
69624;BME280;56843;52.020;5.670;2023-07-22T07:43:35;101134.41;;;22.73;49.55
69624;BME280;56843;52.020;5.670;2023-07-22T07:45:06;101132.84;;;22.76;49.62
69624;BME280;56843;52.020;5.670;2023-07-22T07:46:37;101132.47;;;22.77;49.56
69624;BME280;56843;52.020;5.670;2023-07-22T07:48:08;101132.06;;;22.79;49.38
69624;BME280;56843;52.020;5.670;2023-07-22T07:49:38;101127.00;;;22.81;49.63
69624;BME280;56843;52.020;5.670;2023-07-22T07:51:09;101123.09;;;22.82;49.30
69624;BME280;56843;52.020;5.670;2023-07-22T07:52:40;101126.59;;;22.82;49.21
69624;BME280;56843;52.020;5.670;2023-07-22T07:54:10;101122.28;;;22.85;49.10
69624;BME280;56843;52.020;5.670;2023-07-22T07:55:40;101121.13;;;22.86;49.06
69624;BME280;56843;52.020;5.670;2023-07-22T07:57:11;101116.84;;;22.88;49.15
69624;BME280;56843;52.020;5.670;2023-07-22T07:58:41;101136.66;;;22.89;49.35